sensor_id;sensor_type;location;lat;lon;timestamp;P1;durP1;ratioP1;P2;durP2;ratioP2
13083;SDS011;6608;48.790;9.198;2023-05-10T00:02:07;159.70;;;61.63;;
13083;SDS011;6608;48.790;9.198;2023-05-10T00:04:34;160.43;;;61.93;;
13083;SDS011;6608;48.790;9.198;2023-05-10T00:07:00;160.77;;;62.60;;
13083;SDS011;6608;48.790;9.198;2023-05-10T00:09:27;161.80;;;62.17;;
13083;SDS011;6608;48.790;9.198;2023-05-10T00:11:53;161.67;;;62.07;;
13083;SDS011;6608;48.790;9.198;2023-05-10T00:14:21;160.47;;;62.03;;
13083;SDS011;6608;48.790;9.198;2023-05-10T00:16:47;159.93;;;60.63;;
13083;SDS011;6608;48.790;9.198;2023-05-10T00:19:13;160.20;;;61.40;;
13083;SDS011;6608;48.790;9.198;2023-05-10T00:21:40;158.70;;;60.90;;
13083;SDS011;6608;48.790;9.198;2023-05-10T00:24:06;160.77;;;61.67;;
13083;SDS011;6608;48.790;9.198;2023-05-10T00:26:33;159.57;;;61.63;;
13083;SDS011;6608;48.790;9.198;2023-05-10T00:28:59;159.57;;;62.07;;
13083;SDS011;6608;48.790;9.198;2023-05-10T00:31:27;157.97;;;60.50;;
13083;SDS011;6608;48.790;9.198;2023-05-10T00:33:54;157.70;;;60.50;;
13083;SDS011;6608;48.790;9.198;2023-05-10T00:36:20;158.03;;;60.80;;
13083;SDS011;6608;48.790;9.198;2023-05-10T00:38:47;159.20;;;61.13;;
13083;SDS011;6608;48.790;9.198;2023-05-10T00:41:13;157.67;;;60.27;;
13083;SDS011;6608;48.790;9.198;2023-05-10T00:43:40;157.83;;;60.77;;
13083;SDS011;6608;48.790;9.198;2023-05-10T00:46:07;157.77;;;60.87;;
13083;SDS011;6608;48.790;9.198;2023-05-10T00:48:34;157.70;;;60.53;;
13083;SDS011;6608;48.790;9.198;2023-05-10T00:51:01;156.77;;;60.17;;
13083;SDS011;6608;48.790;9.198;2023-05-10T00:53:28;157.37;;;60.33;;
13083;SDS011;6608;48.790;9.198;2023-05-10T00:55:57;157.13;;;60.20;;
13083;SDS011;6608;48.790;9.198;2023-05-10T00:58:23;161.10;;;59.93;;
13083;SDS011;6608;48.790;9.198;2023-05-10T01:00:53;159.00;;;60.47;;
13083;SDS011;6608;48.790;9.198;2023-05-10T01:03:21;158.27;;;60.90;;
13083;SDS011;6608;48.790;9.198;2023-05-10T01:05:49;158.50;;;60.40;;
13083;SDS011;6608;48.790;9.198;2023-05-10T01:08:15;156.90;;;60.23;;
13083;SDS011;6608;48.790;9.198;2023-05-10T01:10:42;156.30;;;59.67;;
13083;SDS011;6608;48.790;9.198;2023-05-10T01:13:08;156.70;;;60.20;;
13083;SDS011;6608;48.790;9.198;2023-05-10T01:15:35;156.30;;;59.97;;
13083;SDS011;6608;48.790;9.198;2023-05-10T01:18:02;156.80;;;60.47;;
13083;SDS011;6608;48.790;9.198;2023-05-10T01:20:30;158.43;;;60.17;;
13083;SDS011;6608;48.790;9.198;2023-05-10T01:23:10;156.57;;;59.90;;
13083;SDS011;6608;48.790;9.198;2023-05-10T01:26:00;155.47;;;59.50;;
13083;SDS011;6608;48.790;9.198;2023-05-10T01:31:18;156.27;;;59.67;;
13083;SDS011;6608;48.790;9.198;2023-05-10T01:33:50;155.60;;;59.87;;
13083;SDS011;6608;48.790;9.198;2023-05-10T01:36:19;158.30;;;61.47;;
13083;SDS011;6608;48.790;9.198;2023-05-10T01:38:51;157.33;;;60.20;;
13083;SDS011;6608;48.790;9.198;2023-05-10T01:41:19;156.97;;;60.50;;
13083;SDS011;6608;48.790;9.198;2023-05-10T01:43:53;159.10;;;60.57;;
13083;SDS011;6608;48.790;9.198;2023-05-10T01:46:22;156.73;;;60.53;;
13083;SDS011;6608;48.790;9.198;2023-05-10T01:48:51;156.33;;;60.07;;
13083;SDS011;6608;48.790;9.198;2023-05-10T01:51:19;156.73;;;60.57;;
13083;SDS011;6608;48.790;9.198;2023-05-10T01:53:47;155.93;;;59.87;;
13083;SDS011;6608;48.790;9.198;2023-05-10T01:56:14;159.27;;;61.60;;
13083;SDS011;6608;48.790;9.198;2023-05-10T01:58:41;156.53;;;60.03;;
13083;SDS011;6608;48.790;9.198;2023-05-10T02:01:10;156.20;;;60.23;;
13083;SDS011;6608;48.790;9.198;2023-05-10T02:03:37;156.93;;;60.40;;
13083;SDS011;6608;48.790;9.198;2023-05-10T02:06:06;157.43;;;61.17;;
13083;SDS011;6608;48.790;9.198;2023-05-10T02:08:33;155.97;;;60.27;;
13083;SDS011;6608;48.790;9.198;2023-05-10T02:11:01;157.70;;;61.47;;
13083;SDS011;6608;48.790;9.198;2023-05-10T02:13:29;156.23;;;60.40;;
13083;SDS011;6608;48.790;9.198;2023-05-10T02:15:57;155.53;;;60.00;;
13083;SDS011;6608;48.790;9.198;2023-05-10T02:18:25;156.40;;;60.37;;
13083;SDS011;6608;48.790;9.198;2023-05-10T02:20:53;155.67;;;59.80;;
13083;SDS011;6608;48.790;9.198;2023-05-10T02:23:22;155.40;;;60.27;;
13083;SDS011;6608;48.790;9.198;2023-05-10T02:25:49;154.47;;;59.80;;
13083;SDS011;6608;48.790;9.198;2023-05-10T02:28:17;155.10;;;60.23;;
13083;SDS011;6608;48.790;9.198;2023-05-10T02:30:44;156.30;;;60.93;;
13083;SDS011;6608;48.790;9.198;2023-05-10T02:33:10;161.97;;;61.13;;
13083;SDS011;6608;48.790;9.198;2023-05-10T02:35:37;156.40;;;60.13;;
13083;SDS011;6608;48.790;9.198;2023-05-10T02:38:04;155.83;;;60.67;;
13083;SDS011;6608;48.790;9.198;2023-05-10T02:40:32;155.30;;;59.93;;
13083;SDS011;6608;48.790;9.198;2023-05-10T02:42:59;157.77;;;60.40;;
13083;SDS011;6608;48.790;9.198;2023-05-10T02:45:28;155.30;;;60.30;;
13083;SDS011;6608;48.790;9.198;2023-05-10T02:47:55;157.97;;;60.53;;
13083;SDS011;6608;48.790;9.198;2023-05-10T02:50:22;156.03;;;60.47;;
13083;SDS011;6608;48.790;9.198;2023-05-10T02:52:51;155.47;;;60.30;;
13083;SDS011;6608;48.790;9.198;2023-05-10T02:55:21;154.33;;;59.80;;
13083;SDS011;6608;48.790;9.198;2023-05-10T02:57:50;153.27;;;58.40;;
13083;SDS011;6608;48.790;9.198;2023-05-10T03:00:18;156.63;;;61.27;;
13083;SDS011;6608;48.790;9.198;2023-05-10T03:02:45;155.10;;;59.87;;
13083;SDS011;6608;48.790;9.198;2023-05-10T03:05:12;156.67;;;61.07;;
13083;SDS011;6608;48.790;9.198;2023-05-10T03:07:38;155.93;;;60.10;;
13083;SDS011;6608;48.790;9.198;2023-05-10T03:10:05;155.47;;;60.57;;
13083;SDS011;6608;48.790;9.198;2023-05-10T03:12:33;156.57;;;61.23;;
13083;SDS011;6608;48.790;9.198;2023-05-10T03:15:10;155.80;;;60.50;;
13083;SDS011;6608;48.790;9.198;2023-05-10T03:17:40;159.23;;;60.40;;
13083;SDS011;6608;48.790;9.198;2023-05-10T03:20:09;156.07;;;60.70;;
13083;SDS011;6608;48.790;9.198;2023-05-10T03:22:37;155.80;;;60.47;;
13083;SDS011;6608;48.790;9.198;2023-05-10T03:25:05;156.87;;;61.17;;
13083;SDS011;6608;48.790;9.198;2023-05-10T03:27:32;159.97;;;60.90;;
13083;SDS011;6608;48.790;9.198;2023-05-10T03:29:58;156.57;;;61.33;;
13083;SDS011;6608;48.790;9.198;2023-05-10T03:32:27;154.73;;;59.77;;
13083;SDS011;6608;48.790;9.198;2023-05-10T03:34:55;155.00;;;60.33;;
13083;SDS011;6608;48.790;9.198;2023-05-10T03:37:21;155.40;;;60.33;;
13083;SDS011;6608;48.790;9.198;2023-05-10T03:39:48;158.67;;;60.93;;
13083;SDS011;6608;48.790;9.198;2023-05-10T03:42:14;156.57;;;60.73;;
13083;SDS011;6608;48.790;9.198;2023-05-10T03:44:42;155.77;;;60.60;;
13083;SDS011;6608;48.790;9.198;2023-05-10T03:47:09;156.17;;;60.97;;
13083;SDS011;6608;48.790;9.198;2023-05-10T03:49:36;155.83;;;60.40;;
13083;SDS011;6608;48.790;9.198;2023-05-10T03:52:03;157.43;;;61.40;;
13083;SDS011;6608;48.790;9.198;2023-05-10T03:54:30;156.37;;;60.77;;
13083;SDS011;6608;48.790;9.198;2023-05-10T03:56:57;156.13;;;60.67;;
13083;SDS011;6608;48.790;9.198;2023-05-10T03:59:23;156.50;;;60.83;;
13083;SDS011;6608;48.790;9.198;2023-05-10T04:01:49;156.90;;;60.50;;
13083;SDS011;6608;48.790;9.198;2023-05-10T04:04:16;157.90;;;61.13;;
13083;SDS011;6608;48.790;9.198;2023-05-10T04:06:44;157.70;;;60.73;;
13083;SDS011;6608;48.790;9.198;2023-05-10T04:09:11;156.43;;;60.63;;
13083;SDS011;6608;48.790;9.198;2023-05-10T04:11:37;157.00;;;61.60;;
13083;SDS011;6608;48.790;9.198;2023-05-10T04:14:03;156.63;;;61.37;;
13083;SDS011;6608;48.790;9.198;2023-05-10T04:16:30;156.63;;;61.07;;
13083;SDS011;6608;48.790;9.198;2023-05-10T04:18:56;155.03;;;59.70;;
13083;SDS011;6608;48.790;9.198;2023-05-10T04:21:23;155.43;;;60.70;;
13083;SDS011;6608;48.790;9.198;2023-05-10T04:23:51;157.20;;;61.17;;
13083;SDS011;6608;48.790;9.198;2023-05-10T04:26:17;155.57;;;59.87;;
13083;SDS011;6608;48.790;9.198;2023-05-10T04:28:43;156.60;;;61.23;;
13083;SDS011;6608;48.790;9.198;2023-05-10T04:31:10;156.63;;;61.37;;
13083;SDS011;6608;48.790;9.198;2023-05-10T04:33:36;155.23;;;59.80;;
13083;SDS011;6608;48.790;9.198;2023-05-10T04:36:03;158.00;;;61.63;;
13083;SDS011;6608;48.790;9.198;2023-05-10T04:38:29;156.77;;;61.17;;
13083;SDS011;6608;48.790;9.198;2023-05-10T04:41:04;158.33;;;61.47;;
13083;SDS011;6608;48.790;9.198;2023-05-10T04:43:31;156.17;;;61.03;;
13083;SDS011;6608;48.790;9.198;2023-05-10T04:45:57;158.67;;;61.23;;
13083;SDS011;6608;48.790;9.198;2023-05-10T04:48:24;156.03;;;61.13;;
13083;SDS011;6608;48.790;9.198;2023-05-10T04:50:50;157.03;;;61.43;;
13083;SDS011;6608;48.790;9.198;2023-05-10T04:53:16;157.87;;;61.53;;
13083;SDS011;6608;48.790;9.198;2023-05-10T04:55:43;159.27;;;60.17;;
13083;SDS011;6608;48.790;9.198;2023-05-10T04:58:10;158.37;;;61.43;;
13083;SDS011;6608;48.790;9.198;2023-05-10T05:00:37;158.97;;;61.53;;
13083;SDS011;6608;48.790;9.198;2023-05-10T05:03:04;157.57;;;61.93;;
13083;SDS011;6608;48.790;9.198;2023-05-10T05:05:30;157.63;;;61.77;;
13083;SDS011;6608;48.790;9.198;2023-05-10T05:07:56;157.67;;;61.60;;
13083;SDS011;6608;48.790;9.198;2023-05-10T05:10:23;157.53;;;61.33;;
13083;SDS011;6608;48.790;9.198;2023-05-10T05:12:49;159.47;;;62.07;;
13083;SDS011;6608;48.790;9.198;2023-05-10T05:15:17;159.00;;;61.73;;
13083;SDS011;6608;48.790;9.198;2023-05-10T05:17:43;157.87;;;61.73;;
13083;SDS011;6608;48.790;9.198;2023-05-10T05:20:10;158.97;;;62.07;;
13083;SDS011;6608;48.790;9.198;2023-05-10T05:22:37;158.87;;;62.37;;
13083;SDS011;6608;48.790;9.198;2023-05-10T05:25:04;159.67;;;62.60;;
13083;SDS011;6608;48.790;9.198;2023-05-10T05:27:31;160.00;;;63.30;;
13083;SDS011;6608;48.790;9.198;2023-05-10T05:29:57;158.63;;;61.67;;
13083;SDS011;6608;48.790;9.198;2023-05-10T05:32:25;162.77;;;62.67;;
13083;SDS011;6608;48.790;9.198;2023-05-10T05:34:52;159.53;;;62.23;;
13083;SDS011;6608;48.790;9.198;2023-05-10T05:37:19;158.77;;;61.97;;
13083;SDS011;6608;48.790;9.198;2023-05-10T05:39:46;158.90;;;62.10;;
13083;SDS011;6608;48.790;9.198;2023-05-10T05:42:13;161.87;;;62.57;;
13083;SDS011;6608;48.790;9.198;2023-05-10T05:44:41;158.57;;;62.13;;
13083;SDS011;6608;48.790;9.198;2023-05-10T05:47:07;164.13;;;62.30;;
13083;SDS011;6608;48.790;9.198;2023-05-10T05:49:35;159.33;;;61.90;;
13083;SDS011;6608;48.790;9.198;2023-05-10T05:52:02;160.17;;;61.73;;
13083;SDS011;6608;48.790;9.198;2023-05-10T05:54:29;159.67;;;62.67;;
13083;SDS011;6608;48.790;9.198;2023-05-10T05:56:56;160.87;;;62.90;;
13083;SDS011;6608;48.790;9.198;2023-05-10T05:59:22;162.50;;;63.03;;
13083;SDS011;6608;48.790;9.198;2023-05-10T06:01:49;159.43;;;61.83;;
13083;SDS011;6608;48.790;9.198;2023-05-10T06:04:15;162.73;;;62.37;;
13083;SDS011;6608;48.790;9.198;2023-05-10T06:06:43;161.77;;;62.40;;
13083;SDS011;6608;48.790;9.198;2023-05-10T06:09:09;162.13;;;63.90;;
13083;SDS011;6608;48.790;9.198;2023-05-10T06:11:36;162.70;;;63.27;;
13083;SDS011;6608;48.790;9.198;2023-05-10T06:14:02;161.23;;;63.17;;
13083;SDS011;6608;48.790;9.198;2023-05-10T06:16:29;163.83;;;64.63;;
13083;SDS011;6608;48.790;9.198;2023-05-10T06:18:56;209.23;;;95.50;;
13083;SDS011;6608;48.790;9.198;2023-05-10T06:21:22;164.93;;;64.03;;
13083;SDS011;6608;48.790;9.198;2023-05-10T06:23:50;166.00;;;63.60;;
13083;SDS011;6608;48.790;9.198;2023-05-10T06:26:16;163.47;;;63.20;;
13083;SDS011;6608;48.790;9.198;2023-05-10T06:28:43;163.60;;;63.23;;
13083;SDS011;6608;48.790;9.198;2023-05-10T06:31:09;164.20;;;62.87;;
13083;SDS011;6608;48.790;9.198;2023-05-10T06:33:36;164.70;;;63.07;;
13083;SDS011;6608;48.790;9.198;2023-05-10T06:36:03;186.73;;;65.00;;
13083;SDS011;6608;48.790;9.198;2023-05-10T06:38:29;163.27;;;63.27;;
13083;SDS011;6608;48.790;9.198;2023-05-10T06:40:57;164.40;;;64.60;;
13083;SDS011;6608;48.790;9.198;2023-05-10T06:43:24;161.50;;;62.80;;
13083;SDS011;6608;48.790;9.198;2023-05-10T06:45:51;178.63;;;67.77;;
13083;SDS011;6608;48.790;9.198;2023-05-10T06:48:17;170.73;;;67.33;;
13083;SDS011;6608;48.790;9.198;2023-05-10T06:50:44;166.33;;;65.40;;
13083;SDS011;6608;48.790;9.198;2023-05-10T06:53:10;170.53;;;64.10;;
13083;SDS011;6608;48.790;9.198;2023-05-10T06:55:38;166.20;;;63.83;;
13083;SDS011;6608;48.790;9.198;2023-05-10T06:58:06;164.03;;;62.30;;
13083;SDS011;6608;48.790;9.198;2023-05-10T07:00:32;163.27;;;64.00;;
13083;SDS011;6608;48.790;9.198;2023-05-10T07:02:59;165.07;;;64.50;;
13083;SDS011;6608;48.790;9.198;2023-05-10T07:05:25;166.13;;;66.77;;
13083;SDS011;6608;48.790;9.198;2023-05-10T07:07:52;163.17;;;63.17;;
13083;SDS011;6608;48.790;9.198;2023-05-10T07:10:19;161.63;;;63.07;;
13083;SDS011;6608;48.790;9.198;2023-05-10T07:12:45;165.13;;;63.67;;
13083;SDS011;6608;48.790;9.198;2023-05-10T07:15:13;162.07;;;63.13;;
13083;SDS011;6608;48.790;9.198;2023-05-10T07:17:40;160.60;;;62.67;;
13083;SDS011;6608;48.790;9.198;2023-05-10T07:20:07;162.53;;;62.73;;
13083;SDS011;6608;48.790;9.198;2023-05-10T07:22:34;165.70;;;64.93;;
13083;SDS011;6608;48.790;9.198;2023-05-10T07:25:00;164.67;;;65.23;;
13083;SDS011;6608;48.790;9.198;2023-05-10T07:27:27;165.47;;;63.87;;
13083;SDS011;6608;48.790;9.198;2023-05-10T07:29:53;162.83;;;63.37;;
13083;SDS011;6608;48.790;9.198;2023-05-10T07:32:22;165.40;;;64.07;;
13083;SDS011;6608;48.790;9.198;2023-05-10T07:34:49;166.07;;;64.17;;
13083;SDS011;6608;48.790;9.198;2023-05-10T07:37:15;165.00;;;64.07;;
13083;SDS011;6608;48.790;9.198;2023-05-10T07:39:42;167.43;;;64.43;;
13083;SDS011;6608;48.790;9.198;2023-05-10T07:42:08;167.03;;;65.40;;
13083;SDS011;6608;48.790;9.198;2023-05-10T07:44:34;167.10;;;65.40;;
13083;SDS011;6608;48.790;9.198;2023-05-10T07:47:01;180.77;;;76.53;;
13083;SDS011;6608;48.790;9.198;2023-05-10T07:49:29;173.23;;;68.47;;
13083;SDS011;6608;48.790;9.198;2023-05-10T07:51:55;172.43;;;69.10;;
13083;SDS011;6608;48.790;9.198;2023-05-10T07:54:22;167.47;;;65.07;;
13083;SDS011;6608;48.790;9.198;2023-05-10T07:56:48;171.73;;;68.60;;
13083;SDS011;6608;48.790;9.198;2023-05-10T07:59:15;166.17;;;63.90;;
13083;SDS011;6608;48.790;9.198;2023-05-10T08:01:42;169.07;;;65.47;;
13083;SDS011;6608;48.790;9.198;2023-05-10T08:04:09;168.93;;;65.50;;
13083;SDS011;6608;48.790;9.198;2023-05-10T08:06:37;169.63;;;64.80;;
13083;SDS011;6608;48.790;9.198;2023-05-10T08:09:04;168.57;;;65.73;;
13083;SDS011;6608;48.790;9.198;2023-05-10T08:11:30;168.97;;;66.93;;
13083;SDS011;6608;48.790;9.198;2023-05-10T08:13:57;167.80;;;65.13;;
13083;SDS011;6608;48.790;9.198;2023-05-10T08:16:23;167.97;;;65.53;;
13083;SDS011;6608;48.790;9.198;2023-05-10T08:18:50;166.63;;;64.67;;
13083;SDS011;6608;48.790;9.198;2023-05-10T08:21:16;167.57;;;63.83;;
13083;SDS011;6608;48.790;9.198;2023-05-10T08:23:44;165.13;;;63.20;;
13083;SDS011;6608;48.790;9.198;2023-05-10T08:26:11;166.40;;;64.73;;
13083;SDS011;6608;48.790;9.198;2023-05-10T08:28:37;166.77;;;65.47;;
13083;SDS011;6608;48.790;9.198;2023-05-10T08:31:04;166.40;;;63.90;;
13083;SDS011;6608;48.790;9.198;2023-05-10T08:33:30;165.53;;;64.97;;
13083;SDS011;6608;48.790;9.198;2023-05-10T08:35:57;166.33;;;64.70;;
13083;SDS011;6608;48.790;9.198;2023-05-10T08:38:23;167.23;;;64.47;;
13083;SDS011;6608;48.790;9.198;2023-05-10T08:40:51;172.40;;;64.50;;
13083;SDS011;6608;48.790;9.198;2023-05-10T08:43:21;166.97;;;64.97;;
13083;SDS011;6608;48.790;9.198;2023-05-10T08:45:47;166.30;;;64.53;;
13083;SDS011;6608;48.790;9.198;2023-05-10T08:48:15;165.03;;;63.10;;
13083;SDS011;6608;48.790;9.198;2023-05-10T08:50:41;169.47;;;64.87;;
13083;SDS011;6608;48.790;9.198;2023-05-10T08:53:09;167.47;;;64.97;;
13083;SDS011;6608;48.790;9.198;2023-05-10T08:55:36;169.83;;;64.27;;
13083;SDS011;6608;48.790;9.198;2023-05-10T08:58:05;170.23;;;64.03;;
13083;SDS011;6608;48.790;9.198;2023-05-10T09:00:31;167.13;;;64.63;;
13083;SDS011;6608;48.790;9.198;2023-05-10T09:02:58;171.80;;;65.93;;
13083;SDS011;6608;48.790;9.198;2023-05-10T09:05:24;168.37;;;65.20;;
13083;SDS011;6608;48.790;9.198;2023-05-10T09:07:51;174.87;;;68.70;;
13083;SDS011;6608;48.790;9.198;2023-05-10T09:10:17;174.27;;;67.27;;
13083;SDS011;6608;48.790;9.198;2023-05-10T09:12:44;174.00;;;66.73;;
13083;SDS011;6608;48.790;9.198;2023-05-10T09:15:13;169.90;;;65.27;;
13083;SDS011;6608;48.790;9.198;2023-05-10T09:17:41;170.87;;;66.03;;
13083;SDS011;6608;48.790;9.198;2023-05-10T09:20:08;171.23;;;65.83;;
13083;SDS011;6608;48.790;9.198;2023-05-10T09:22:34;173.40;;;65.07;;
13083;SDS011;6608;48.790;9.198;2023-05-10T09:25:05;169.30;;;64.90;;
13083;SDS011;6608;48.790;9.198;2023-05-10T09:27:31;174.67;;;66.40;;
13083;SDS011;6608;48.790;9.198;2023-05-10T09:29:58;172.67;;;66.40;;
13083;SDS011;6608;48.790;9.198;2023-05-10T09:32:36;171.27;;;64.83;;
13083;SDS011;6608;48.790;9.198;2023-05-10T09:35:09;170.13;;;65.50;;
13083;SDS011;6608;48.790;9.198;2023-05-10T09:37:36;170.40;;;65.60;;
13083;SDS011;6608;48.790;9.198;2023-05-10T09:40:06;169.83;;;66.20;;
13083;SDS011;6608;48.790;9.198;2023-05-10T09:42:33;171.70;;;65.23;;
13083;SDS011;6608;48.790;9.198;2023-05-10T09:45:01;170.87;;;65.63;;
13083;SDS011;6608;48.790;9.198;2023-05-10T09:47:27;169.33;;;65.10;;
13083;SDS011;6608;48.790;9.198;2023-05-10T09:49:55;171.67;;;65.37;;
13083;SDS011;6608;48.790;9.198;2023-05-10T09:52:28;171.03;;;65.90;;
13083;SDS011;6608;48.790;9.198;2023-05-10T09:54:55;171.20;;;66.27;;
13083;SDS011;6608;48.790;9.198;2023-05-10T09:57:22;170.93;;;65.77;;
13083;SDS011;6608;48.790;9.198;2023-05-10T09:59:48;172.23;;;66.87;;
13083;SDS011;6608;48.790;9.198;2023-05-10T10:02:16;175.43;;;67.93;;
13083;SDS011;6608;48.790;9.198;2023-05-10T10:04:42;177.27;;;68.43;;
13083;SDS011;6608;48.790;9.198;2023-05-10T10:07:10;174.13;;;66.80;;
13083;SDS011;6608;48.790;9.198;2023-05-10T10:09:37;172.97;;;66.13;;
13083;SDS011;6608;48.790;9.198;2023-05-10T10:12:04;172.53;;;67.17;;
13083;SDS011;6608;48.790;9.198;2023-05-10T10:14:31;171.73;;;67.17;;
13083;SDS011;6608;48.790;9.198;2023-05-10T10:16:57;179.90;;;71.70;;
13083;SDS011;6608;48.790;9.198;2023-05-10T10:19:26;169.83;;;65.00;;
13083;SDS011;6608;48.790;9.198;2023-05-10T10:21:52;172.97;;;68.00;;
13083;SDS011;6608;48.790;9.198;2023-05-10T10:24:20;174.40;;;69.53;;
13083;SDS011;6608;48.790;9.198;2023-05-10T10:26:47;177.53;;;69.47;;
13083;SDS011;6608;48.790;9.198;2023-05-10T10:29:20;170.40;;;65.20;;
13083;SDS011;6608;48.790;9.198;2023-05-10T10:31:48;171.83;;;66.23;;
13083;SDS011;6608;48.790;9.198;2023-05-10T10:34:21;170.13;;;66.20;;
13083;SDS011;6608;48.790;9.198;2023-05-10T10:36:49;168.93;;;64.73;;
13083;SDS011;6608;48.790;9.198;2023-05-10T10:39:15;171.37;;;65.10;;
13083;SDS011;6608;48.790;9.198;2023-05-10T10:41:50;171.47;;;66.03;;
13083;SDS011;6608;48.790;9.198;2023-05-10T10:44:27;173.23;;;66.33;;
13083;SDS011;6608;48.790;9.198;2023-05-10T10:47:00;170.77;;;65.23;;
13083;SDS011;6608;48.790;9.198;2023-05-10T10:49:27;172.40;;;67.37;;
13083;SDS011;6608;48.790;9.198;2023-05-10T10:52:12;174.67;;;67.77;;
13083;SDS011;6608;48.790;9.198;2023-05-10T10:54:39;171.77;;;65.30;;
13083;SDS011;6608;48.790;9.198;2023-05-10T10:57:11;171.50;;;67.00;;
13083;SDS011;6608;48.790;9.198;2023-05-10T10:59:41;169.27;;;64.50;;
13083;SDS011;6608;48.790;9.198;2023-05-10T11:02:07;170.57;;;65.47;;
13083;SDS011;6608;48.790;9.198;2023-05-10T11:04:41;170.17;;;65.30;;
13083;SDS011;6608;48.790;9.198;2023-05-10T11:07:17;169.87;;;64.53;;
13083;SDS011;6608;48.790;9.198;2023-05-10T11:09:43;169.90;;;65.20;;
13083;SDS011;6608;48.790;9.198;2023-05-10T11:12:11;171.73;;;63.97;;
13083;SDS011;6608;48.790;9.198;2023-05-10T11:14:38;171.10;;;65.27;;
13083;SDS011;6608;48.790;9.198;2023-05-10T11:22:28;166.50;;;63.53;;
13083;SDS011;6608;48.790;9.198;2023-05-10T11:24:57;166.90;;;64.73;;
13083;SDS011;6608;48.790;9.198;2023-05-10T11:27:25;168.40;;;64.47;;
13083;SDS011;6608;48.790;9.198;2023-05-10T11:29:52;175.73;;;67.73;;
13083;SDS011;6608;48.790;9.198;2023-05-10T11:32:19;167.13;;;64.20;;
13083;SDS011;6608;48.790;9.198;2023-05-10T11:34:46;166.97;;;64.83;;
13083;SDS011;6608;48.790;9.198;2023-05-10T11:37:13;165.80;;;63.33;;
13083;SDS011;6608;48.790;9.198;2023-05-10T11:39:45;170.67;;;64.43;;
13083;SDS011;6608;48.790;9.198;2023-05-10T11:42:12;170.73;;;65.43;;
13083;SDS011;6608;48.790;9.198;2023-05-10T11:44:40;175.60;;;66.33;;
13083;SDS011;6608;48.790;9.198;2023-05-10T11:47:08;177.03;;;68.83;;
13083;SDS011;6608;48.790;9.198;2023-05-10T11:49:34;171.83;;;65.67;;
13083;SDS011;6608;48.790;9.198;2023-05-10T11:52:04;172.53;;;66.97;;
13083;SDS011;6608;48.790;9.198;2023-05-10T11:54:31;169.37;;;65.20;;
13083;SDS011;6608;48.790;9.198;2023-05-10T11:56:59;171.93;;;65.63;;
13083;SDS011;6608;48.790;9.198;2023-05-10T11:59:26;171.83;;;64.40;;
13083;SDS011;6608;48.790;9.198;2023-05-10T12:01:53;173.23;;;66.73;;
13083;SDS011;6608;48.790;9.198;2023-05-10T12:04:20;169.03;;;63.83;;
13083;SDS011;6608;48.790;9.198;2023-05-10T12:06:46;175.50;;;69.10;;
13083;SDS011;6608;48.790;9.198;2023-05-10T12:09:13;175.17;;;69.27;;
13083;SDS011;6608;48.790;9.198;2023-05-10T12:11:40;178.50;;;71.47;;
13083;SDS011;6608;48.790;9.198;2023-05-10T12:14:07;172.30;;;64.87;;
13083;SDS011;6608;48.790;9.198;2023-05-10T12:16:34;168.97;;;66.00;;
13083;SDS011;6608;48.790;9.198;2023-05-10T12:19:03;168.30;;;64.83;;
13083;SDS011;6608;48.790;9.198;2023-05-10T12:21:30;167.83;;;64.73;;
13083;SDS011;6608;48.790;9.198;2023-05-10T12:23:59;169.13;;;65.17;;
13083;SDS011;6608;48.790;9.198;2023-05-10T12:26:25;168.17;;;64.13;;
13083;SDS011;6608;48.790;9.198;2023-05-10T12:28:54;168.77;;;65.27;;
13083;SDS011;6608;48.790;9.198;2023-05-10T12:31:20;169.30;;;64.80;;
13083;SDS011;6608;48.790;9.198;2023-05-10T12:33:47;170.70;;;67.43;;
13083;SDS011;6608;48.790;9.198;2023-05-10T12:36:16;170.93;;;66.47;;
13083;SDS011;6608;48.790;9.198;2023-05-10T12:38:43;167.40;;;64.60;;
13083;SDS011;6608;48.790;9.198;2023-05-10T12:41:13;167.87;;;65.13;;
13083;SDS011;6608;48.790;9.198;2023-05-10T12:43:39;169.97;;;65.17;;
13083;SDS011;6608;48.790;9.198;2023-05-10T12:46:06;169.23;;;64.10;;
13083;SDS011;6608;48.790;9.198;2023-05-10T12:48:33;168.53;;;65.50;;
13083;SDS011;6608;48.790;9.198;2023-05-10T12:51:00;168.83;;;64.37;;
13083;SDS011;6608;48.790;9.198;2023-05-10T12:53:28;172.90;;;65.90;;
13083;SDS011;6608;48.790;9.198;2023-05-10T12:55:54;170.97;;;66.17;;
13083;SDS011;6608;48.790;9.198;2023-05-10T12:58:21;174.23;;;65.43;;
13083;SDS011;6608;48.790;9.198;2023-05-10T13:00:48;168.77;;;64.53;;
13083;SDS011;6608;48.790;9.198;2023-05-10T13:03:16;169.03;;;64.97;;
13083;SDS011;6608;48.790;9.198;2023-05-10T13:05:43;172.10;;;66.43;;
13083;SDS011;6608;48.790;9.198;2023-05-10T13:08:09;168.80;;;65.43;;
13083;SDS011;6608;48.790;9.198;2023-05-10T13:10:37;217.47;;;97.27;;
13083;SDS011;6608;48.790;9.198;2023-05-10T13:13:03;170.97;;;66.53;;
13083;SDS011;6608;48.790;9.198;2023-05-10T13:15:30;169.30;;;65.90;;
13083;SDS011;6608;48.790;9.198;2023-05-10T13:17:56;169.40;;;65.83;;
13083;SDS011;6608;48.790;9.198;2023-05-10T13:20:23;167.60;;;65.50;;
13083;SDS011;6608;48.790;9.198;2023-05-10T13:22:49;167.90;;;65.03;;
13083;SDS011;6608;48.790;9.198;2023-05-10T13:25:15;169.77;;;65.10;;
13083;SDS011;6608;48.790;9.198;2023-05-10T13:27:43;169.37;;;66.07;;
13083;SDS011;6608;48.790;9.198;2023-05-10T13:30:10;176.00;;;66.37;;
13083;SDS011;6608;48.790;9.198;2023-05-10T13:32:37;171.80;;;67.63;;
13083;SDS011;6608;48.790;9.198;2023-05-10T13:35:04;168.40;;;65.20;;
13083;SDS011;6608;48.790;9.198;2023-05-10T13:37:31;181.67;;;76.00;;
13083;SDS011;6608;48.790;9.198;2023-05-10T13:40:00;173.07;;;66.77;;
13083;SDS011;6608;48.790;9.198;2023-05-10T13:42:26;168.87;;;65.27;;
13083;SDS011;6608;48.790;9.198;2023-05-10T13:44:54;172.93;;;67.60;;
13083;SDS011;6608;48.790;9.198;2023-05-10T13:47:21;172.73;;;65.60;;
13083;SDS011;6608;48.790;9.198;2023-05-10T13:49:47;171.20;;;65.23;;
13083;SDS011;6608;48.790;9.198;2023-05-10T13:52:14;171.63;;;65.70;;
13083;SDS011;6608;48.790;9.198;2023-05-10T13:54:40;168.23;;;64.10;;
13083;SDS011;6608;48.790;9.198;2023-05-10T13:57:06;171.47;;;66.27;;
13083;SDS011;6608;48.790;9.198;2023-05-10T13:59:33;170.20;;;65.97;;
13083;SDS011;6608;48.790;9.198;2023-05-10T14:02:01;170.37;;;66.70;;
13083;SDS011;6608;48.790;9.198;2023-05-10T14:04:28;168.23;;;64.77;;
13083;SDS011;6608;48.790;9.198;2023-05-10T14:06:54;169.67;;;65.57;;
13083;SDS011;6608;48.790;9.198;2023-05-10T14:09:21;170.53;;;65.43;;
13083;SDS011;6608;48.790;9.198;2023-05-10T14:11:47;169.30;;;66.47;;
13083;SDS011;6608;48.790;9.198;2023-05-10T14:14:13;175.23;;;70.07;;
13083;SDS011;6608;48.790;9.198;2023-05-10T14:16:41;173.77;;;66.00;;
13083;SDS011;6608;48.790;9.198;2023-05-10T14:19:09;169.57;;;65.37;;
13083;SDS011;6608;48.790;9.198;2023-05-10T14:21:35;169.73;;;64.97;;
13083;SDS011;6608;48.790;9.198;2023-05-10T14:24:02;170.03;;;64.80;;
13083;SDS011;6608;48.790;9.198;2023-05-10T14:26:28;172.33;;;65.70;;
13083;SDS011;6608;48.790;9.198;2023-05-10T14:28:55;171.00;;;65.97;;
13083;SDS011;6608;48.790;9.198;2023-05-10T14:31:21;173.00;;;65.67;;